sensor_id;sensor_type;location;lat;lon;timestamp;P1;durP1;ratioP1;P2;durP2;ratioP2
7919;SDS011;18778;47.610;9.776;2023-05-10T00:01:42;1.77;;;1.67;;
7919;SDS011;18778;47.610;9.776;2023-05-10T00:04:08;1.70;;;1.70;;
7919;SDS011;18778;47.610;9.776;2023-05-10T00:06:33;1.80;;;1.70;;
7919;SDS011;18778;47.610;9.776;2023-05-10T00:08:59;1.80;;;1.70;;
7919;SDS011;18778;47.610;9.776;2023-05-10T00:11:25;1.70;;;1.60;;
7919;SDS011;18778;47.610;9.776;2023-05-10T00:13:50;1.70;;;1.60;;
7919;SDS011;18778;47.610;9.776;2023-05-10T00:16:16;1.97;;;1.63;;
7919;SDS011;18778;47.610;9.776;2023-05-10T00:18:42;1.90;;;1.50;;
7919;SDS011;18778;47.610;9.776;2023-05-10T00:21:08;1.60;;;1.60;;
7919;SDS011;18778;47.610;9.776;2023-05-10T00:23:34;2.20;;;1.70;;
7919;SDS011;18778;47.610;9.776;2023-05-10T00:26:00;1.87;;;1.77;;
7919;SDS011;18778;47.610;9.776;2023-05-10T00:28:26;1.87;;;1.77;;
7919;SDS011;18778;47.610;9.776;2023-05-10T00:30:53;1.83;;;1.70;;
7919;SDS011;18778;47.610;9.776;2023-05-10T00:33:18;3.43;;;1.70;;
7919;SDS011;18778;47.610;9.776;2023-05-10T00:35:44;1.90;;;1.80;;
7919;SDS011;18778;47.610;9.776;2023-05-10T00:38:09;0.90;;;0.90;;
7919;SDS011;18778;47.610;9.776;2023-05-10T00:40:36;1.30;;;1.00;;
7919;SDS011;18778;47.610;9.776;2023-05-10T00:43:02;4.13;;;0.90;;
7919;SDS011;18778;47.610;9.776;2023-05-10T00:45:29;0.83;;;0.83;;
7919;SDS011;18778;47.610;9.776;2023-05-10T00:47:56;1.00;;;1.00;;
7919;SDS011;18778;47.610;9.776;2023-05-10T00:50:23;1.90;;;0.90;;
7919;SDS011;18778;47.610;9.776;2023-05-10T00:52:49;1.00;;;1.00;;
7919;SDS011;18778;47.610;9.776;2023-05-10T00:55:15;0.90;;;0.90;;
7919;SDS011;18778;47.610;9.776;2023-05-10T00:57:41;1.20;;;1.20;;
7919;SDS011;18778;47.610;9.776;2023-05-10T01:00:08;1.00;;;0.90;;
7919;SDS011;18778;47.610;9.776;2023-05-10T01:02:34;0.93;;;0.90;;
7919;SDS011;18778;47.610;9.776;2023-05-10T01:05:01;1.10;;;1.10;;
7919;SDS011;18778;47.610;9.776;2023-05-10T01:07:28;1.00;;;1.00;;
7919;SDS011;18778;47.610;9.776;2023-05-10T01:09:54;1.43;;;0.93;;
7919;SDS011;18778;47.610;9.776;2023-05-10T01:12:21;0.90;;;0.90;;
7919;SDS011;18778;47.610;9.776;2023-05-10T01:14:46;1.20;;;1.20;;
7919;SDS011;18778;47.610;9.776;2023-05-10T01:17:13;1.07;;;1.07;;
7919;SDS011;18778;47.610;9.776;2023-05-10T01:19:39;2.67;;;1.70;;
7919;SDS011;18778;47.610;9.776;2023-05-10T01:25:11;1.93;;;1.57;;
7919;SDS011;18778;47.610;9.776;2023-05-10T01:28:08;1.20;;;1.20;;
7919;SDS011;18778;47.610;9.776;2023-05-10T01:31:08;1.30;;;1.20;;
7919;SDS011;18778;47.610;9.776;2023-05-10T01:34:05;1.23;;;1.13;;
7919;SDS011;18778;47.610;9.776;2023-05-10T01:36:40;1.27;;;1.27;;
7919;SDS011;18778;47.610;9.776;2023-05-10T01:39:25;1.10;;;1.10;;
7919;SDS011;18778;47.610;9.776;2023-05-10T01:42:07;3.93;;;1.10;;
7919;SDS011;18778;47.610;9.776;2023-05-10T01:44:40;1.40;;;1.30;;
7919;SDS011;18778;47.610;9.776;2023-05-10T01:47:25;1.10;;;1.10;;
7919;SDS011;18778;47.610;9.776;2023-05-10T01:50:01;1.30;;;1.20;;
7919;SDS011;18778;47.610;9.776;2023-05-10T01:52:30;2.10;;;1.40;;
7919;SDS011;18778;47.610;9.776;2023-05-10T01:55:02;1.97;;;1.73;;
7919;SDS011;18778;47.610;9.776;2023-05-10T01:57:35;1.60;;;1.50;;
7919;SDS011;18778;47.610;9.776;2023-05-10T02:00:04;1.50;;;1.40;;
7919;SDS011;18778;47.610;9.776;2023-05-10T02:02:33;1.40;;;1.40;;
7919;SDS011;18778;47.610;9.776;2023-05-10T02:05:04;1.33;;;1.27;;
7919;SDS011;18778;47.610;9.776;2023-05-10T02:07:31;2.03;;;1.80;;
7919;SDS011;18778;47.610;9.776;2023-05-10T02:09:58;2.20;;;1.60;;
7919;SDS011;18778;47.610;9.776;2023-05-10T02:12:24;3.90;;;1.80;;
7919;SDS011;18778;47.610;9.776;2023-05-10T02:14:52;3.07;;;1.50;;
7919;SDS011;18778;47.610;9.776;2023-05-10T02:17:18;1.73;;;1.63;;
7919;SDS011;18778;47.610;9.776;2023-05-10T02:19:45;2.13;;;1.50;;
7919;SDS011;18778;47.610;9.776;2023-05-10T02:22:12;3.53;;;1.63;;
7919;SDS011;18778;47.610;9.776;2023-05-10T02:24:38;2.33;;;1.43;;
7919;SDS011;18778;47.610;9.776;2023-05-10T02:27:05;1.63;;;1.53;;
7919;SDS011;18778;47.610;9.776;2023-05-10T02:29:32;2.43;;;1.83;;
7919;SDS011;18778;47.610;9.776;2023-05-10T02:31:59;2.07;;;1.77;;
7919;SDS011;18778;47.610;9.776;2023-05-10T02:34:26;3.10;;;1.67;;
7919;SDS011;18778;47.610;9.776;2023-05-10T02:36:52;2.00;;;1.90;;
7919;SDS011;18778;47.610;9.776;2023-05-10T02:39:19;1.90;;;1.67;;
7919;SDS011;18778;47.610;9.776;2023-05-10T02:41:46;1.90;;;1.80;;
7919;SDS011;18778;47.610;9.776;2023-05-10T02:44:12;1.80;;;1.70;;
7919;SDS011;18778;47.610;9.776;2023-05-10T02:46:42;3.07;;;1.90;;
7919;SDS011;18778;47.610;9.776;2023-05-10T02:49:08;1.93;;;1.83;;
7919;SDS011;18778;47.610;9.776;2023-05-10T02:51:35;1.87;;;1.77;;
7919;SDS011;18778;47.610;9.776;2023-05-10T02:54:12;2.23;;;2.03;;
7919;SDS011;18778;47.610;9.776;2023-05-10T02:56:43;1.80;;;1.70;;
7919;SDS011;18778;47.610;9.776;2023-05-10T02:59:14;2.63;;;1.87;;
7919;SDS011;18778;47.610;9.776;2023-05-10T03:01:40;2.43;;;1.93;;
7919;SDS011;18778;47.610;9.776;2023-05-10T03:04:07;1.90;;;1.80;;
7919;SDS011;18778;47.610;9.776;2023-05-10T03:06:33;2.00;;;1.90;;
7919;SDS011;18778;47.610;9.776;2023-05-10T03:08:59;3.17;;;1.90;;
7919;SDS011;18778;47.610;9.776;2023-05-10T03:11:32;1.90;;;1.80;;
7919;SDS011;18778;47.610;9.776;2023-05-10T03:14:07;2.20;;;2.10;;
7919;SDS011;18778;47.610;9.776;2023-05-10T03:16:46;2.07;;;1.80;;
7919;SDS011;18778;47.610;9.776;2023-05-10T03:19:27;4.20;;;2.60;;
7919;SDS011;18778;47.610;9.776;2023-05-10T03:21:59;4.80;;;2.10;;
7919;SDS011;18778;47.610;9.776;2023-05-10T03:24:28;1.80;;;1.70;;
7919;SDS011;18778;47.610;9.776;2023-05-10T03:26:55;2.40;;;2.20;;
7919;SDS011;18778;47.610;9.776;2023-05-10T03:29:22;2.17;;;2.00;;
7919;SDS011;18778;47.610;9.776;2023-05-10T03:31:48;2.23;;;2.03;;
7919;SDS011;18778;47.610;9.776;2023-05-10T03:34:14;2.20;;;2.00;;
7919;SDS011;18778;47.610;9.776;2023-05-10T03:36:40;2.57;;;2.00;;
7919;SDS011;18778;47.610;9.776;2023-05-10T03:39:06;3.20;;;2.33;;
7919;SDS011;18778;47.610;9.776;2023-05-10T03:41:32;2.80;;;2.40;;
7919;SDS011;18778;47.610;9.776;2023-05-10T03:43:58;2.00;;;1.90;;
7919;SDS011;18778;47.610;9.776;2023-05-10T03:46:24;2.90;;;2.10;;
7919;SDS011;18778;47.610;9.776;2023-05-10T03:48:50;4.00;;;2.33;;
7919;SDS011;18778;47.610;9.776;2023-05-10T03:51:16;2.40;;;2.20;;
7919;SDS011;18778;47.610;9.776;2023-05-10T03:53:42;2.53;;;2.40;;
7919;SDS011;18778;47.610;9.776;2023-05-10T03:56:08;2.37;;;2.17;;
7919;SDS011;18778;47.610;9.776;2023-05-10T03:58:34;2.50;;;2.30;;
7919;SDS011;18778;47.610;9.776;2023-05-10T04:01:00;3.30;;;2.10;;
7919;SDS011;18778;47.610;9.776;2023-05-10T04:03:26;2.20;;;2.10;;
7919;SDS011;18778;47.610;9.776;2023-05-10T04:06:01;2.30;;;2.20;;
7919;SDS011;18778;47.610;9.776;2023-05-10T04:08:27;2.10;;;2.00;;
7919;SDS011;18778;47.610;9.776;2023-05-10T04:10:53;3.13;;;2.27;;
7919;SDS011;18778;47.610;9.776;2023-05-10T04:13:20;2.87;;;2.53;;
7919;SDS011;18778;47.610;9.776;2023-05-10T04:15:46;3.17;;;2.20;;
7919;SDS011;18778;47.610;9.776;2023-05-10T04:18:11;2.43;;;2.33;;
7919;SDS011;18778;47.610;9.776;2023-05-10T04:20:37;2.17;;;2.07;;
7919;SDS011;18778;47.610;9.776;2023-05-10T04:23:02;2.77;;;1.93;;
7919;SDS011;18778;47.610;9.776;2023-05-10T04:25:28;2.60;;;2.40;;
7919;SDS011;18778;47.610;9.776;2023-05-10T04:27:54;2.73;;;2.53;;
7919;SDS011;18778;47.610;9.776;2023-05-10T04:30:19;3.23;;;3.03;;
7919;SDS011;18778;47.610;9.776;2023-05-10T04:32:45;2.43;;;2.33;;
7919;SDS011;18778;47.610;9.776;2023-05-10T04:35:10;4.67;;;2.80;;
7919;SDS011;18778;47.610;9.776;2023-05-10T04:37:36;3.37;;;2.53;;
7919;SDS011;18778;47.610;9.776;2023-05-10T04:40:02;4.70;;;2.70;;
7919;SDS011;18778;47.610;9.776;2023-05-10T04:42:28;6.37;;;3.13;;
7919;SDS011;18778;47.610;9.776;2023-05-10T04:44:54;3.03;;;2.83;;
7919;SDS011;18778;47.610;9.776;2023-05-10T04:47:19;3.77;;;3.47;;
7919;SDS011;18778;47.610;9.776;2023-05-10T04:49:45;3.57;;;3.27;;
7919;SDS011;18778;47.610;9.776;2023-05-10T04:52:10;3.53;;;3.23;;
7919;SDS011;18778;47.610;9.776;2023-05-10T04:54:36;4.30;;;3.90;;
7919;SDS011;18778;47.610;9.776;2023-05-10T04:57:02;4.03;;;3.73;;
7919;SDS011;18778;47.610;9.776;2023-05-10T04:59:28;4.40;;;3.60;;
7919;SDS011;18778;47.610;9.776;2023-05-10T05:01:53;3.87;;;3.57;;
7919;SDS011;18778;47.610;9.776;2023-05-10T05:04:19;3.70;;;3.37;;
7919;SDS011;18778;47.610;9.776;2023-05-10T05:06:45;4.20;;;3.80;;
7919;SDS011;18778;47.610;9.776;2023-05-10T05:09:10;4.37;;;3.97;;
7919;SDS011;18778;47.610;9.776;2023-05-10T05:11:36;3.70;;;3.40;;
7919;SDS011;18778;47.610;9.776;2023-05-10T05:14:01;4.10;;;3.73;;
7919;SDS011;18778;47.610;9.776;2023-05-10T05:16:30;4.03;;;3.63;;
7919;SDS011;18778;47.610;9.776;2023-05-10T05:18:56;3.57;;;3.27;;
7919;SDS011;18778;47.610;9.776;2023-05-10T05:21:22;3.80;;;3.40;;
7919;SDS011;18778;47.610;9.776;2023-05-10T05:23:48;4.43;;;3.47;;
7919;SDS011;18778;47.610;9.776;2023-05-10T05:26:14;3.23;;;2.97;;
7919;SDS011;18778;47.610;9.776;2023-05-10T05:28:40;2.90;;;2.70;;
7919;SDS011;18778;47.610;9.776;2023-05-10T05:31:05;3.87;;;3.10;;
7919;SDS011;18778;47.610;9.776;2023-05-10T05:33:32;3.10;;;2.80;;
7919;SDS011;18778;47.610;9.776;2023-05-10T05:36:00;3.53;;;2.37;;
7919;SDS011;18778;47.610;9.776;2023-05-10T05:38:29;2.20;;;2.00;;
7919;SDS011;18778;47.610;9.776;2023-05-10T05:40:55;6.03;;;2.20;;
7919;SDS011;18778;47.610;9.776;2023-05-10T05:43:21;2.60;;;2.40;;
7919;SDS011;18778;47.610;9.776;2023-05-10T05:45:46;2.07;;;1.97;;
7919;SDS011;18778;47.610;9.776;2023-05-10T05:48:12;6.80;;;2.23;;
7919;SDS011;18778;47.610;9.776;2023-05-10T05:50:37;2.13;;;1.93;;
7919;SDS011;18778;47.610;9.776;2023-05-10T05:53:03;1.97;;;1.87;;
7919;SDS011;18778;47.610;9.776;2023-05-10T05:55:28;2.30;;;2.10;;
7919;SDS011;18778;47.610;9.776;2023-05-10T05:57:56;2.10;;;2.00;;
7919;SDS011;18778;47.610;9.776;2023-05-10T06:00:22;3.30;;;2.17;;
7919;SDS011;18778;47.610;9.776;2023-05-10T06:02:48;1.90;;;1.80;;
7919;SDS011;18778;47.610;9.776;2023-05-10T06:05:13;1.70;;;1.70;;
7919;SDS011;18778;47.610;9.776;2023-05-10T06:07:40;1.90;;;1.80;;
7919;SDS011;18778;47.610;9.776;2023-05-10T06:10:08;3.50;;;1.90;;
7919;SDS011;18778;47.610;9.776;2023-05-10T06:12:34;3.23;;;1.93;;
7919;SDS011;18778;47.610;9.776;2023-05-10T06:15:00;2.23;;;2.03;;
7919;SDS011;18778;47.610;9.776;2023-05-10T06:17:27;2.23;;;2.13;;
7919;SDS011;18778;47.610;9.776;2023-05-10T06:19:53;1.70;;;1.60;;
7919;SDS011;18778;47.610;9.776;2023-05-10T06:22:20;2.70;;;2.20;;
7919;SDS011;18778;47.610;9.776;2023-05-10T06:24:47;2.23;;;2.13;;
7919;SDS011;18778;47.610;9.776;2023-05-10T06:27:13;2.20;;;2.00;;
7919;SDS011;18778;47.610;9.776;2023-05-10T06:29:39;2.20;;;2.10;;
7919;SDS011;18778;47.610;9.776;2023-05-10T06:32:05;2.43;;;2.13;;
7919;SDS011;18778;47.610;9.776;2023-05-10T06:34:30;6.93;;;2.10;;
7919;SDS011;18778;47.610;9.776;2023-05-10T06:36:57;2.17;;;2.07;;
7919;SDS011;18778;47.610;9.776;2023-05-10T06:39:22;2.07;;;1.93;;
7919;SDS011;18778;47.610;9.776;2023-05-10T06:41:48;4.50;;;2.07;;
7919;SDS011;18778;47.610;9.776;2023-05-10T06:44:14;2.17;;;1.97;;
7919;SDS011;18778;47.610;9.776;2023-05-10T06:46:40;2.10;;;1.90;;
7919;SDS011;18778;47.610;9.776;2023-05-10T06:49:06;2.50;;;2.30;;
7919;SDS011;18778;47.610;9.776;2023-05-10T06:51:32;2.07;;;1.97;;
7919;SDS011;18778;47.610;9.776;2023-05-10T06:53:57;3.47;;;2.10;;
7919;SDS011;18778;47.610;9.776;2023-05-10T06:56:23;2.20;;;2.10;;
7919;SDS011;18778;47.610;9.776;2023-05-10T06:58:48;2.00;;;1.90;;
7919;SDS011;18778;47.610;9.776;2023-05-10T07:01:14;2.10;;;2.00;;
7919;SDS011;18778;47.610;9.776;2023-05-10T07:03:40;1.77;;;1.67;;
7919;SDS011;18778;47.610;9.776;2023-05-10T07:06:05;2.20;;;2.10;;
7919;SDS011;18778;47.610;9.776;2023-05-10T07:08:32;3.87;;;2.27;;
7919;SDS011;18778;47.610;9.776;2023-05-10T07:11:05;2.17;;;2.07;;
7919;SDS011;18778;47.610;9.776;2023-05-10T07:13:32;4.23;;;2.13;;
7919;SDS011;18778;47.610;9.776;2023-05-10T07:15:58;2.13;;;2.03;;
7919;SDS011;18778;47.610;9.776;2023-05-10T07:18:25;2.63;;;2.33;;
7919;SDS011;18778;47.610;9.776;2023-05-10T07:20:51;3.37;;;2.07;;
7919;SDS011;18778;47.610;9.776;2023-05-10T07:23:17;4.30;;;2.00;;
7919;SDS011;18778;47.610;9.776;2023-05-10T07:25:50;2.20;;;2.10;;
7919;SDS011;18778;47.610;9.776;2023-05-10T07:28:17;4.57;;;2.47;;
7919;SDS011;18778;47.610;9.776;2023-05-10T07:30:43;2.30;;;2.10;;
7919;SDS011;18778;47.610;9.776;2023-05-10T07:33:09;2.63;;;2.23;;
7919;SDS011;18778;47.610;9.776;2023-05-10T07:35:36;2.53;;;2.43;;
7919;SDS011;18778;47.610;9.776;2023-05-10T07:38:02;2.70;;;2.60;;
7919;SDS011;18778;47.610;9.776;2023-05-10T07:40:28;3.00;;;2.60;;
7919;SDS011;18778;47.610;9.776;2023-05-10T07:42:53;2.83;;;2.50;;
7919;SDS011;18778;47.610;9.776;2023-05-10T07:45:19;2.73;;;2.40;;
7919;SDS011;18778;47.610;9.776;2023-05-10T07:47:45;2.80;;;2.20;;
7919;SDS011;18778;47.610;9.776;2023-05-10T07:50:10;2.73;;;1.87;;
7919;SDS011;18778;47.610;9.776;2023-05-10T07:52:36;1.97;;;1.87;;
7919;SDS011;18778;47.610;9.776;2023-05-10T07:55:01;2.20;;;2.10;;
7919;SDS011;18778;47.610;9.776;2023-05-10T07:57:27;2.40;;;2.20;;
7919;SDS011;18778;47.610;9.776;2023-05-10T07:59:53;2.50;;;2.13;;
7919;SDS011;18778;47.610;9.776;2023-05-10T08:02:18;2.10;;;2.00;;
7919;SDS011;18778;47.610;9.776;2023-05-10T08:04:44;2.00;;;1.90;;
7919;SDS011;18778;47.610;9.776;2023-05-10T08:07:10;2.30;;;2.17;;
7919;SDS011;18778;47.610;9.776;2023-05-10T08:09:36;2.80;;;2.20;;
7919;SDS011;18778;47.610;9.776;2023-05-10T08:12:01;2.10;;;2.00;;
7919;SDS011;18778;47.610;9.776;2023-05-10T08:14:28;3.17;;;2.30;;
7919;SDS011;18778;47.610;9.776;2023-05-10T08:16:53;2.70;;;2.40;;
7919;SDS011;18778;47.610;9.776;2023-05-10T08:19:19;3.27;;;2.47;;
7919;SDS011;18778;47.610;9.776;2023-05-10T08:21:46;2.27;;;2.17;;
7919;SDS011;18778;47.610;9.776;2023-05-10T08:24:12;2.57;;;2.47;;
7919;SDS011;18778;47.610;9.776;2023-05-10T08:26:37;2.80;;;2.60;;
7919;SDS011;18778;47.610;9.776;2023-05-10T08:29:03;3.53;;;2.57;;
7919;SDS011;18778;47.610;9.776;2023-05-10T08:31:28;3.80;;;2.80;;
7919;SDS011;18778;47.610;9.776;2023-05-10T08:33:55;2.50;;;2.30;;
7919;SDS011;18778;47.610;9.776;2023-05-10T08:36:21;2.20;;;2.10;;
7919;SDS011;18778;47.610;9.776;2023-05-10T08:38:50;2.33;;;2.10;;
7919;SDS011;18778;47.610;9.776;2023-05-10T08:41:17;1.67;;;1.57;;
7919;SDS011;18778;47.610;9.776;2023-05-10T08:43:45;5.10;;;1.70;;
7919;SDS011;18778;47.610;9.776;2023-05-10T08:46:14;1.60;;;1.50;;
7919;SDS011;18778;47.610;9.776;2023-05-10T08:48:43;1.43;;;1.43;;
7919;SDS011;18778;47.610;9.776;2023-05-10T08:51:13;1.47;;;1.37;;
7919;SDS011;18778;47.610;9.776;2023-05-10T08:53:43;1.50;;;1.37;;
7919;SDS011;18778;47.610;9.776;2023-05-10T08:56:10;1.50;;;1.40;;
7919;SDS011;18778;47.610;9.776;2023-05-10T08:58:36;1.63;;;1.10;;
7919;SDS011;18778;47.610;9.776;2023-05-10T09:01:02;1.90;;;1.00;;
7919;SDS011;18778;47.610;9.776;2023-05-10T09:03:29;1.20;;;1.20;;
7919;SDS011;18778;47.610;9.776;2023-05-10T09:05:55;1.03;;;1.03;;
7919;SDS011;18778;47.610;9.776;2023-05-10T09:08:25;1.40;;;1.30;;
7919;SDS011;18778;47.610;9.776;2023-05-10T09:10:51;1.70;;;1.10;;
7919;SDS011;18778;47.610;9.776;2023-05-10T09:13:17;1.23;;;1.13;;
7919;SDS011;18778;47.610;9.776;2023-05-10T09:15:44;1.33;;;1.23;;
7919;SDS011;18778;47.610;9.776;2023-05-10T09:18:10;1.60;;;0.90;;
7919;SDS011;18778;47.610;9.776;2023-05-10T09:20:36;1.20;;;1.20;;
7919;SDS011;18778;47.610;9.776;2023-05-10T09:23:02;1.27;;;1.17;;
7919;SDS011;18778;47.610;9.776;2023-05-10T09:25:28;1.50;;;1.40;;
7919;SDS011;18778;47.610;9.776;2023-05-10T09:27:53;3.60;;;1.50;;
7919;SDS011;18778;47.610;9.776;2023-05-10T09:30:24;1.83;;;1.73;;
7919;SDS011;18778;47.610;9.776;2023-05-10T09:32:50;1.63;;;1.40;;
7919;SDS011;18778;47.610;9.776;2023-05-10T09:35:17;2.30;;;1.60;;
7919;SDS011;18778;47.610;9.776;2023-05-10T09:37:46;1.60;;;1.33;;
7919;SDS011;18778;47.610;9.776;2023-05-10T09:40:17;1.17;;;1.10;;
7919;SDS011;18778;47.610;9.776;2023-05-10T09:45:23;1.00;;;1.00;;
7919;SDS011;18778;47.610;9.776;2023-05-10T09:47:51;1.07;;;1.07;;
7919;SDS011;18778;47.610;9.776;2023-05-10T09:50:16;1.00;;;1.00;;
7919;SDS011;18778;47.610;9.776;2023-05-10T09:52:46;1.20;;;1.20;;
7919;SDS011;18778;47.610;9.776;2023-05-10T09:55:25;1.27;;;1.10;;
7919;SDS011;18778;47.610;9.776;2023-05-10T09:58:00;1.53;;;1.13;;
7919;SDS011;18778;47.610;9.776;2023-05-10T10:00:27;1.73;;;1.20;;
7919;SDS011;18778;47.610;9.776;2023-05-10T10:02:57;1.17;;;1.17;;
7919;SDS011;18778;47.610;9.776;2023-05-10T10:05:33;1.20;;;1.20;;
7919;SDS011;18778;47.610;9.776;2023-05-10T10:08:01;1.13;;;1.13;;
7919;SDS011;18778;47.610;9.776;2023-05-10T10:10:28;1.43;;;1.37;;
7919;SDS011;18778;47.610;9.776;2023-05-10T10:12:55;1.20;;;1.20;;
7919;SDS011;18778;47.610;9.776;2023-05-10T10:15:21;1.70;;;1.60;;
7919;SDS011;18778;47.610;9.776;2023-05-10T10:17:48;1.50;;;1.40;;
7919;SDS011;18778;47.610;9.776;2023-05-10T10:20:14;1.80;;;1.40;;
7919;SDS011;18778;47.610;9.776;2023-05-10T10:22:40;2.00;;;1.70;;
7919;SDS011;18778;47.610;9.776;2023-05-10T10:25:07;1.90;;;1.80;;
7919;SDS011;18778;47.610;9.776;2023-05-10T10:30:37;1.80;;;1.43;;
7919;SDS011;18778;47.610;9.776;2023-05-10T10:36:01;1.57;;;1.47;;
7919;SDS011;18778;47.610;9.776;2023-05-10T10:49:37;3.70;;;1.50;;
7919;SDS011;18778;47.610;9.776;2023-05-10T10:52:23;3.60;;;3.40;;
7919;SDS011;18778;47.610;9.776;2023-05-10T11:02:57;2.00;;;1.60;;
7919;SDS011;18778;47.610;9.776;2023-05-10T11:05:49;1.83;;;1.40;;
7919;SDS011;18778;47.610;9.776;2023-05-10T11:08:34;2.33;;;1.40;;
7919;SDS011;18778;47.610;9.776;2023-05-10T11:11:08;1.83;;;1.10;;
7919;SDS011;18778;47.610;9.776;2023-05-10T11:16:17;1.90;;;1.10;;
7919;SDS011;18778;47.610;9.776;2023-05-10T11:18:54;1.00;;;1.00;;
7919;SDS011;18778;47.610;9.776;2023-05-10T11:21:24;1.33;;;1.10;;
7919;SDS011;18778;47.610;9.776;2023-05-10T11:23:50;1.37;;;1.30;;
7919;SDS011;18778;47.610;9.776;2023-05-10T11:26:16;2.40;;;2.20;;
7919;SDS011;18778;47.610;9.776;2023-05-10T11:28:46;2.27;;;1.90;;
7919;SDS011;18778;47.610;9.776;2023-05-10T11:31:13;2.90;;;2.60;;
7919;SDS011;18778;47.610;9.776;2023-05-10T11:36:17;2.70;;;2.50;;
7919;SDS011;18778;47.610;9.776;2023-05-10T11:38:44;7.80;;;6.50;;
7919;SDS011;18778;47.610;9.776;2023-05-10T11:41:11;2.63;;;2.40;;
7919;SDS011;18778;47.610;9.776;2023-05-10T11:43:40;6.90;;;5.70;;
7919;SDS011;18778;47.610;9.776;2023-05-10T11:46:07;2.80;;;2.60;;
7919;SDS011;18778;47.610;9.776;2023-05-10T11:48:34;1.97;;;1.87;;
7919;SDS011;18778;47.610;9.776;2023-05-10T11:51:00;2.10;;;1.70;;
7919;SDS011;18778;47.610;9.776;2023-05-10T11:53:27;1.20;;;1.20;;
7919;SDS011;18778;47.610;9.776;2023-05-10T11:55:53;1.70;;;1.70;;
7919;SDS011;18778;47.610;9.776;2023-05-10T11:58:18;1.50;;;1.40;;
7919;SDS011;18778;47.610;9.776;2023-05-10T12:00:46;2.67;;;1.60;;
7919;SDS011;18778;47.610;9.776;2023-05-10T12:03:12;1.13;;;1.13;;
7919;SDS011;18778;47.610;9.776;2023-05-10T12:05:38;1.53;;;1.43;;
7919;SDS011;18778;47.610;9.776;2023-05-10T12:11:04;1.70;;;1.60;;
7919;SDS011;18778;47.610;9.776;2023-05-10T12:13:38;1.53;;;1.40;;
7919;SDS011;18778;47.610;9.776;2023-05-10T12:19:11;1.77;;;1.50;;
7919;SDS011;18778;47.610;9.776;2023-05-10T12:21:37;3.07;;;1.73;;
7919;SDS011;18778;47.610;9.776;2023-05-10T12:24:03;1.80;;;1.70;;
7919;SDS011;18778;47.610;9.776;2023-05-10T12:26:32;1.93;;;1.83;;
7919;SDS011;18778;47.610;9.776;2023-05-10T12:29:15;2.47;;;1.60;;
7919;SDS011;18778;47.610;9.776;2023-05-10T12:31:52;3.13;;;1.67;;
7919;SDS011;18778;47.610;9.776;2023-05-10T12:34:22;1.73;;;1.63;;
7919;SDS011;18778;47.610;9.776;2023-05-10T12:37:06;1.67;;;1.50;;
7919;SDS011;18778;47.610;9.776;2023-05-10T12:39:44;1.60;;;1.50;;
7919;SDS011;18778;47.610;9.776;2023-05-10T12:42:11;2.23;;;1.30;;
7919;SDS011;18778;47.610;9.776;2023-05-10T12:44:36;2.20;;;1.40;;
7919;SDS011;18778;47.610;9.776;2023-05-10T12:47:02;2.53;;;1.53;;
7919;SDS011;18778;47.610;9.776;2023-05-10T12:49:28;1.63;;;1.53;;
7919;SDS011;18778;47.610;9.776;2023-05-10T12:51:53;2.17;;;1.70;;
7919;SDS011;18778;47.610;9.776;2023-05-10T12:54:19;1.83;;;1.67;;
7919;SDS011;18778;47.610;9.776;2023-05-10T12:56:44;2.53;;;1.50;;
7919;SDS011;18778;47.610;9.776;2023-05-10T12:59:10;3.87;;;2.10;;
7919;SDS011;18778;47.610;9.776;2023-05-10T13:01:36;4.97;;;2.20;;
7919;SDS011;18778;47.610;9.776;2023-05-10T13:04:01;5.03;;;1.83;;
7919;SDS011;18778;47.610;9.776;2023-05-10T13:06:27;3.83;;;2.00;;
7919;SDS011;18778;47.610;9.776;2023-05-10T13:08:53;2.27;;;1.70;;
7919;SDS011;18778;47.610;9.776;2023-05-10T13:11:18;6.27;;;2.13;;
7919;SDS011;18778;47.610;9.776;2023-05-10T13:13:45;4.17;;;1.93;;
7919;SDS011;18778;47.610;9.776;2023-05-10T13:16:10;3.73;;;1.80;;
7919;SDS011;18778;47.610;9.776;2023-05-10T13:18:36;2.63;;;1.70;;
7919;SDS011;18778;47.610;9.776;2023-05-10T13:21:02;5.47;;;1.80;;
7919;SDS011;18778;47.610;9.776;2023-05-10T13:23:30;3.90;;;2.13;;
7919;SDS011;18778;47.610;9.776;2023-05-10T13:25:55;3.17;;;1.70;;
7919;SDS011;18778;47.610;9.776;2023-05-10T13:28:21;3.33;;;1.50;;
7919;SDS011;18778;47.610;9.776;2023-05-10T13:30:47;2.57;;;1.50;;
7919;SDS011;18778;47.610;9.776;2023-05-10T13:33:13;1.97;;;1.60;;
7919;SDS011;18778;47.610;9.776;2023-05-10T13:35:38;1.70;;;1.60;;
7919;SDS011;18778;47.610;9.776;2023-05-10T13:38:04;1.60;;;1.50;;
7919;SDS011;18778;47.610;9.776;2023-05-10T13:40:32;1.77;;;1.67;;
7919;SDS011;18778;47.610;9.776;2023-05-10T13:42:58;1.47;;;1.37;;
7919;SDS011;18778;47.610;9.776;2023-05-10T13:45:24;3.93;;;1.73;;
7919;SDS011;18778;47.610;9.776;2023-05-10T13:47:50;2.43;;;1.70;;
7919;SDS011;18778;47.610;9.776;2023-05-10T13:50:16;2.20;;;1.93;;
7919;SDS011;18778;47.610;9.776;2023-05-10T13:52:43;1.37;;;1.33;;
7919;SDS011;18778;47.610;9.776;2023-05-10T13:55:08;1.90;;;1.80;;
7919;SDS011;18778;47.610;9.776;2023-05-10T13:57:34;2.13;;;1.90;;
7919;SDS011;18778;47.610;9.776;2023-05-10T14:00:01;2.37;;;1.77;;
7919;SDS011;18778;47.610;9.776;2023-05-10T14:02:26;2.40;;;1.60;;
7919;SDS011;18778;47.610;9.776;2023-05-10T14:04:52;1.60;;;1.50;;
7919;SDS011;18778;47.610;9.776;2023-05-10T14:07:18;2.23;;;1.70;;
7919;SDS011;18778;47.610;9.776;2023-05-10T14:09:44;1.43;;;1.30;;
7919;SDS011;18778;47.610;9.776;2023-05-10T14:12:09;2.03;;;1.47;;
7919;SDS011;18778;47.610;9.776;2023-05-10T14:14:35;1.87;;;1.20;;
7919;SDS011;18778;47.610;9.776;2023-05-10T14:17:00;6.00;;;2.00;;
7919;SDS011;18778;47.610;9.776;2023-05-10T14:19:26;2.07;;;1.60;;
7919;SDS011;18778;47.610;9.776;2023-05-10T14:21:52;2.37;;;1.47;;
7919;SDS011;18778;47.610;9.776;2023-05-10T14:24:18;3.17;;;2.13;;
7919;SDS011;18778;47.610;9.776;2023-05-10T14:26:44;2.50;;;2.20;;
7919;SDS011;18778;47.610;9.776;2023-05-10T14:29:10;2.97;;;1.63;;
7919;SDS011;18778;47.610;9.776;2023-05-10T14:31:35;1.83;;;1.30;;
7919;SDS011;18778;47.610;9.776;2023-05-10T14:34:01;2.83;;;2.27;;
7919;SDS011;18778;47.610;9.776;2023-05-10T14:36:27;2.23;;;1.80;;
7919;SDS011;18778;47.610;9.776;2023-05-10T14:38:54;3.13;;;1.50;;
7919;SDS011;18778;47.610;9.776;2023-05-10T14:41:19;1.33;;;1.23;;
7919;SDS011;18778;47.610;9.776;2023-05-10T14:43:45;1.50;;;1.37;;
7919;SDS011;18778;47.610;9.776;2023-05-10T14:46:10;3.57;;;1.50;;
7919;SDS011;18778;47.610;9.776;2023-05-10T14:48:36;1.77;;;1.67;;
7919;SDS011;18778;47.610;9.776;2023-05-10T14:51:02;1.70;;;1.60;;
7919;SDS011;18778;47.610;9.776;2023-05-10T14:53:28;2.83;;;1.60;;
7919;SDS011;18778;47.610;9.776;2023-05-10T14:55:53;1.93;;;1.83;;
7919;SDS011;18778;47.610;9.776;2023-05-10T14:58:19;2.87;;;1.87;;
7919;SDS011;18778;47.610;9.776;2023-05-10T15:00:45;1.80;;;1.47;;
7919;SDS011;18778;47.610;9.776;2023-05-10T15:03:11;3.70;;;1.83;;
7919;SDS011;18778;47.610;9.776;2023-05-10T15:05:37;2.07;;;1.50;;
7919;SDS011;18778;47.610;9.776;2023-05-10T15:08:03;1.50;;;1.30;;
7919;SDS011;18778;47.610;9.776;2023-05-10T15:10:29;1.87;;;1.23;;
7919;SDS011;18778;47.610;9.776;2023-05-10T15:12:55;1.60;;;1.50;;
7919;SDS011;18778;47.610;9.776;2023-05-10T15:15:20;1.40;;;1.30;;
7919;SDS011;18778;47.610;9.776;2023-05-10T15:17:47;1.50;;;1.40;;
7919;SDS011;18778;47.610;9.776;2023-05-10T15:20:12;2.37;;;1.40;;
7919;SDS011;18778;47.610;9.776;2023-05-10T15:22:38;2.03;;;1.33;;
7919;SDS011;18778;47.610;9.776;2023-05-10T15:25:06;1.57;;;1.47;;
7919;SDS011;18778;47.610;9.776;2023-05-10T15:27:32;1.80;;;1.30;;
7919;SDS011;18778;47.610;9.776;2023-05-10T15:29:58;1.60;;;1.50;;
7919;SDS011;18778;47.610;9.776;2023-05-10T15:32:24;1.30;;;1.30;;
7919;SDS011;18778;47.610;9.776;2023-05-10T15:34:50;1.57;;;1.53;;
7919;SDS011;18778;47.610;9.776;2023-05-10T15:37:15;1.87;;;1.77;;
7919;SDS011;18778;47.610;9.776;2023-05-10T15:39:41;2.50;;;1.50;;
7919;SDS011;18778;47.610;9.776;2023-05-10T15:42:16;2.83;;;1.70;;
7919;SDS011;18778;47.610;9.776;2023-05-10T15:44:41;2.07;;;1.50;;